This is the latest recevied weather packets stored in our database for station/object OK2ZI. If no packets are shown the sender has not sent any weather packets the latest 10 day(s).
| Time | Temp. | Humidity | Pressure | Rain* | Wind** | Luminosity | Snow |
|---|---|---|---|---|---|---|---|
| 1778109487 | 12.78° C | 81% | 1005 hPa | 0 mm | - | - | - |
| 1778108887 | 12.22° C | 83% | 1005 hPa | 0 mm | - | - | - |
| 1778108646 | 12.22° C | 84% | 1004 hPa | 0 mm | - | - | - |
| 1778107810 | 12.78° C | 82% | 1004 hPa | 0 mm | - | - | - |
| 1778106966 | 12.78° C | 80% | 1004 hPa | 0 mm | - | - | - |
| 1778106727 | 13.33° C | 79% | 1003 hPa | 0 mm | - | - | - |
| 1778106011 | 13.89° C | 77% | 1003 hPa | 0 mm | - | - | - |
| 1778104686 | 14.44° C | 76% | 1003 hPa | 0 mm | - | - | - |
| 1778104571 | 14.44° C | 77% | 1003 hPa | 0 mm | - | - | - |
| 1778103966 | 14.44° C | 76% | 1003 hPa | 0 mm | - | - | - |
| 1778099887 | 16.11° C | 66% | 1002 hPa | 0 mm | - | - | - |
| 1778099415 | 16.11° C | 66% | 1002 hPa | 0 mm | - | - | - |
| 1778097967 | 16.67° C | 64% | 1002 hPa | 0 mm | - | - | - |
| 1778096647 | 17.22° C | 62% | 1002 hPa | 0 mm | - | - | - |
| 1778096527 | 17.22° C | 62% | 1002 hPa | 0 mm | - | - | - |
| 1778096412 | 17.22° C | 61% | 1002 hPa | 0 mm | - | - | - |
| 1778095927 | 17.22° C | 61% | 1002 hPa | 0 mm | - | - | - |
| 1778095685 | 17.78° C | 61% | 1002 hPa | 0 mm | - | - | - |
| 1778095567 | 17.78° C | 60% | 1002 hPa | 0 mm | - | - | - |
| 1778094845 | 17.78° C | 59% | 1002 hPa | 0 mm | - | - | - |
| 1778094727 | 17.78° C | 59% | 1002 hPa | 0 mm | - | - | - |
| 1778094247 | 17.78° C | 58% | 1002 hPa | 0 mm | - | - | - |
| 1778093887 | 17.78° C | 58% | 1002 hPa | 0 mm | - | - | - |
| 1778093647 | 18.33° C | 58% | 1002 hPa | 0 mm | - | - | - |
| 1778093526 | 18.33° C | 58% | 1002 hPa | 0 mm | - | - | - |
* Rain latest hour (hover to see other rain measurements)
** Current wind speed in m/s (hover to see current wind gust speed)